createdAt,value
2017-10-17T07:03:15.687Z,1013.64
2017-10-17T07:04:17.131Z,1013.66
2017-10-17T07:05:20.681Z,1013.72
2017-10-17T07:06:22.649Z,1013.72
2017-10-17T07:07:26.221Z,1013.75
2017-10-17T07:08:29.766Z,1013.77
2017-10-17T07:09:33.489Z,1013.79
2017-10-17T07:10:37.038Z,1013.82
2017-10-17T07:11:40.634Z,1013.79
2017-10-17T07:12:44.399Z,1013.74
2017-10-17T07:13:48.317Z,1013.76
2017-10-17T07:14:51.921Z,1013.71
2017-10-17T07:15:55.669Z,1013.72
2017-10-17T07:16:59.190Z,1013.75
2017-10-17T07:18:03.170Z,1013.71
2017-10-17T07:19:06.802Z,1013.75
2017-10-17T07:20:10.317Z,1013.77
2017-10-17T07:21:13.907Z,1013.83
2017-10-17T07:22:17.478Z,1013.80
2017-10-17T07:23:21.031Z,1013.82
2017-10-17T07:24:24.606Z,1013.83
2017-10-17T07:25:28.190Z,1013.84
2017-10-17T07:26:31.729Z,1013.84
2017-10-17T07:27:35.271Z,1013.88
2017-10-17T07:28:38.957Z,1013.92
2017-10-17T07:29:40.973Z,1013.94
2017-10-17T07:30:44.790Z,1013.99
2017-10-17T07:31:49.338Z,1013.97
2017-10-17T07:32:53.002Z,1013.96
2017-10-17T07:33:56.263Z,1013.95
2017-10-17T07:34:59.892Z,1013.99
2017-10-17T07:36:03.445Z,1013.97
2017-10-17T07:37:07.185Z,1013.92
2017-10-17T07:38:10.823Z,1013.95
2017-10-17T07:39:14.458Z,1013.97
2017-10-17T07:40:18.915Z,1013.96
2017-10-17T07:41:23.276Z,1014.01
2017-10-17T07:42:27.501Z,1013.99
2017-10-17T07:43:29.541Z,1014.00
2017-10-17T07:44:33.263Z,1014.04
2017-10-17T07:45:38.439Z,1014.07
2017-10-17T07:46:42.169Z,1014.12
2017-10-17T07:47:45.813Z,1014.11
2017-10-17T07:48:49.825Z,1014.12
2017-10-17T07:49:53.523Z,1014.15
2017-10-17T07:50:57.091Z,1014.16
2017-10-17T07:52:00.818Z,1014.15
2017-10-17T07:53:04.332Z,1014.13
2017-10-17T07:54:07.955Z,1014.13
2017-10-17T07:55:10.076Z,1014.11
2017-10-17T07:56:12.128Z,1014.16
2017-10-17T07:57:14.890Z,1014.11
2017-10-17T07:58:19.013Z,1014.15
2017-10-17T07:59:22.893Z,1014.18
2017-10-17T08:00:26.671Z,1014.14
2017-10-17T08:01:30.656Z,1014.15
2017-10-17T08:02:35.429Z,1014.17
2017-10-17T08:03:38.595Z,1014.14
2017-10-17T08:04:42.055Z,1014.15
2017-10-17T08:05:45.649Z,1014.14
2017-10-17T08:06:49.595Z,1014.17
2017-10-17T08:07:53.474Z,1014.17
2017-10-17T08:08:57.097Z,1014.17
2017-10-17T08:10:01.013Z,1014.19
2017-10-17T08:11:04.672Z,1014.21
2017-10-17T08:12:08.128Z,1014.19
2017-10-17T08:13:11.965Z,1014.24
2017-10-17T08:14:16.510Z,1014.25
2017-10-17T08:15:20.361Z,1014.22
2017-10-17T08:16:24.343Z,1014.21
2017-10-17T08:17:26.495Z,1014.19
2017-10-17T08:18:30.318Z,1014.18
2017-10-17T08:19:33.821Z,1014.19
2017-10-17T08:20:37.646Z,1014.25
2017-10-17T08:21:41.880Z,1014.24
2017-10-17T08:22:45.578Z,1014.25
2017-10-17T08:23:49.493Z,1014.29
2017-10-17T08:24:53.123Z,1014.23
2017-10-17T08:25:56.896Z,1014.24
2017-10-17T08:27:00.064Z,1014.27
2017-10-17T08:28:03.228Z,1014.27
2017-10-17T08:29:07.444Z,1014.29
2017-10-17T08:30:11.214Z,1014.27
2017-10-17T08:31:16.488Z,1014.25
2017-10-17T08:32:20.111Z,1014.26
2017-10-17T08:33:23.821Z,1014.23
2017-10-17T08:34:27.461Z,1014.22
2017-10-17T08:35:31.470Z,1014.14
2017-10-17T08:36:35.229Z,1014.15
2017-10-17T08:37:39.579Z,1014.14
2017-10-17T08:38:43.333Z,1014.16
2017-10-17T08:39:46.881Z,1014.12
2017-10-17T08:40:50.597Z,1014.16
2017-10-17T08:41:54.276Z,1014.18
2017-10-17T08:42:57.957Z,1014.23
2017-10-17T08:44:01.637Z,1014.24
2017-10-17T08:45:05.965Z,1014.27
2017-10-17T08:46:08.065Z,1014.25
2017-10-17T08:47:12.320Z,1014.27
2017-10-17T08:48:16.143Z,1014.28
2017-10-17T08:49:19.760Z,1014.24
2017-10-17T08:50:26.047Z,1014.24
2017-10-17T08:51:30.640Z,1014.25
2017-10-17T08:52:34.223Z,1014.25
2017-10-17T08:53:38.817Z,1014.24
2017-10-17T08:54:42.897Z,1014.26
2017-10-17T08:55:46.864Z,1014.28
2017-10-17T08:56:50.648Z,1014.29
2017-10-17T08:57:54.660Z,1014.26
2017-10-17T08:58:56.690Z,1014.21
2017-10-17T09:00:00.362Z,1014.22
2017-10-17T09:01:04.005Z,1014.23
2017-10-17T09:02:06.069Z,1014.22
2017-10-17T09:03:09.604Z,1014.26
2017-10-17T09:04:13.501Z,1014.26
2017-10-17T09:05:17.170Z,1014.22
2017-10-17T09:06:22.412Z,1014.20
2017-10-17T09:07:26.167Z,1014.20
2017-10-17T09:08:29.875Z,1014.16
2017-10-17T09:09:33.837Z,1014.18
2017-10-17T09:10:37.488Z,1014.19
2017-10-17T09:11:41.434Z,1014.27
2017-10-17T09:12:48.117Z,1014.28
2017-10-17T09:13:52.103Z,1014.21
2017-10-17T09:14:56.353Z,1014.26
2017-10-17T09:16:00.633Z,1014.27
2017-10-17T09:17:04.215Z,1014.26
2017-10-17T09:18:08.285Z,1014.28
2017-10-17T09:19:12.973Z,1014.25
2017-10-17T09:20:16.903Z,1014.35
2017-10-17T09:21:22.843Z,1014.31
2017-10-17T09:22:26.746Z,1014.34
2017-10-17T09:23:30.563Z,1014.35
2017-10-17T09:24:35.017Z,1014.35
2017-10-17T09:25:39.009Z,1014.29
2017-10-17T09:26:41.109Z,1014.27
2017-10-17T09:27:44.643Z,1014.26
2017-10-17T09:28:48.145Z,1014.31
2017-10-17T09:29:51.951Z,1014.35
2017-10-17T09:30:54.834Z,1014.35
2017-10-17T09:31:58.285Z,1014.40
2017-10-17T09:33:00.792Z,1014.47
2017-10-17T09:34:03.005Z,1014.52
2017-10-17T09:35:06.066Z,1014.48
2017-10-17T09:36:09.667Z,1014.40
2017-10-17T09:37:13.007Z,1014.42
2017-10-17T09:38:15.090Z,1014.37
2017-10-17T09:39:17.499Z,1014.38
2017-10-17T09:40:19.838Z,1014.32
2017-10-17T09:41:22.580Z,1014.29
2017-10-17T09:42:26.278Z,1014.24
2017-10-17T09:43:28.365Z,1014.17
2017-10-17T09:44:31.901Z,1014.18
2017-10-17T09:45:40.393Z,1014.18
